Knottingley, United Kingdom
Current Conditions -  °F | °C
As of 11:20 PM on Wednesday 17 Dec 2014 (Local Time) from EGNM Reporting Station
Light Rain Light Rain  
Wind Chill: 50°   Ceiling: 1000
Heat Index: 50°   Visibility: 6mi
Dew Point: 48°   Wind: 12mph
Humidity: 94%   Direction: 240°WSW
Pressure: 29.62"   Gusts: NA
Location:  53.71°N, 1.26°W
Report Text: EGNM 172320Z 24010KT 9999 -RADZ BKN010 10/09 Q1003
Loading
Personal Weather Stations






























Interactive Weather Map New forecast layout! Learn more

10-Day Weather Forecast

Advertisements
Track Severe Weather on mobile